Time;durP1;ratioP1;P1;durP2;ratioP2;P2;SDS_P1;SDS_P2;PMS_P1;PMS_P2;Temp;Humidity;BMP_temperature;BMP_pressure;BME280_temperature;BME280_humidity;BME280_pressure;Samples;Min_cycle;Max_cycle;Signal;HPM_P1;HPM_P2
2023/05/13 00:00:57;;;;;;;10.85;5.88;;;12.50;99.90;;;;;;4230987;28;20047;-84
2023/05/13 00:02:57;;;;;;;11.68;5.25;;;12.50;99.90;;;;;;4232253;28;20047;-85
2023/05/13 00:04:59;;;;;;;7.53;5.18;;;12.40;99.90;;;;;;4231482;28;20139;-84
2023/05/13 00:07:00;;;;;;;9.70;4.90;;;12.40;99.90;;;;;;4232100;28;20647;-84
2023/05/13 00:09:01;;;;;;;8.48;5.47;;;12.40;99.90;;;;;;4213510;28;20047;-84
2023/05/13 00:11:02;;;;;;;11.93;5.95;;;12.30;99.90;;;;;;4231790;28;20434;-83
2023/05/13 00:13:03;;;;;;;7.65;4.97;;;12.30;99.90;;;;;;4239570;27;20049;-84
2023/05/13 00:15:05;;;;;;;6.82;5.35;;;12.30;99.90;;;;;;4229424;28;20529;-83
2023/05/13 00:17:05;;;;;;;9.23;5.43;;;12.30;99.90;;;;;;4230919;28;20046;-84
2023/05/13 00:19:06;;;;;;;11.45;5.28;;;12.20;99.90;;;;;;4248406;27;20039;-84
2023/05/13 00:21:07;;;;;;;11.27;5.50;;;12.20;99.90;;;;;;4248871;27;20043;-84
2023/05/13 00:23:08;;;;;;;9.00;5.13;;;12.20;99.90;;;;;;4230051;28;20063;-84
2023/05/13 00:25:10;;;;;;;12.30;4.60;;;12.10;99.90;;;;;;4230173;28;20094;-84
2023/05/13 00:27:11;;;;;;;8.32;4.55;;;12.10;99.90;;;;;;4230787;28;20092;-84
2023/05/13 00:29:11;;;;;;;7.82;4.68;;;12.10;99.90;;;;;;4248223;27;20475;-84
2023/05/13 00:31:12;;;;;;;6.22;5.00;;;12.00;99.90;;;;;;4246502;28;20222;-84
2023/05/13 00:33:14;;;;;;;8.82;5.40;;;12.00;99.90;;;;;;4213035;28;20048;-84
2023/05/13 00:35:16;;;;;;;8.43;4.80;;;12.00;99.90;;;;;;4231490;28;20497;-84
2023/05/13 00:37:19;;;;;;;7.72;5.07;;;12.00;99.90;;;;;;4213157;28;20418;-84
2023/05/13 00:39:20;;;;;;;11.63;5.28;;;11.90;99.90;;;;;;4231585;28;20448;-84
2023/05/13 00:41:21;;;;;;;6.93;4.70;;;11.90;99.90;;;;;;4214065;28;20040;-84
2023/05/13 00:43:22;;;;;;;7.18;4.97;;;11.90;99.90;;;;;;4234805;28;20044;-85
2023/05/13 00:45:24;;;;;;;11.25;4.93;;;11.90;99.90;;;;;;4235403;28;20050;-84
2023/05/13 00:47:25;;;;;;;7.20;4.93;;;11.90;99.90;;;;;;4248177;27;20075;-84
2023/05/13 00:49:26;;;;;;;8.10;5.10;;;11.90;99.90;;;;;;4238460;27;20101;-84
2023/05/13 00:51:28;;;;;;;8.88;5.10;;;11.80;99.90;;;;;;4233950;28;20120;-84
2023/05/13 00:53:32;;;;;;;7.47;4.95;;;11.80;99.90;;;;;;4235237;28;20039;-84
2023/05/13 00:55:33;;;;;;;6.70;5.07;;;11.80;99.90;;;;;;4235022;28;20051;-84
2023/05/13 00:57:34;;;;;;;7.53;4.22;;;11.80;99.90;;;;;;4234402;28;20077;-84
2023/05/13 00:59:35;;;;;;;8.93;5.00;;;11.80;99.90;;;;;;4217103;28;20391;-84
2023/05/13 01:01:45;;;;;;;7.70;5.80;;;11.70;99.90;;;;;;4233233;28;20454;-84
2023/05/13 01:04:14;;;;;;;11.25;5.47;;;11.70;99.90;;;;;;4234658;28;20044;-84
2023/05/13 01:06:31;;;;;;;9.50;4.65;;;11.70;99.90;;;;;;4235301;28;20086;-84
2023/05/13 01:08:32;;;;;;;12.70;5.65;;;11.70;99.90;;;;;;4251020;27;20038;-84
2023/05/13 01:10:50;;;;;;;7.95;5.00;;;11.60;99.90;;;;;;4233470;28;20122;-84
2023/05/13 01:12:57;;;;;;;11.20;5.18;;;11.60;99.90;;;;;;4251310;27;20529;-84
2023/05/13 01:15:21;;;;;;;9.18;4.70;;;11.60;99.90;;;;;;4233446;28;20399;-84
2023/05/13 01:17:53;;;;;;;7.38;4.72;;;11.60;99.90;;;;;;4251800;27;20054;-84
2023/05/13 01:19:56;;;;;;;12.60;5.30;;;11.60;99.90;;;;;;4239827;27;20058;-84
2023/05/13 01:21:57;;;;;;;6.80;4.95;;;11.50;99.90;;;;;;4245385;27;20044;-84
2023/05/13 01:23:58;;;;;;;8.73;4.85;;;11.40;99.90;;;;;;4233618;28;20517;-84
2023/05/13 01:25:59;;;;;;;9.52;5.75;;;11.40;99.90;;;;;;4231977;28;20102;-84
2023/05/13 01:28:00;;;;;;;7.65;4.97;;;11.40;99.90;;;;;;4233641;28;20040;-84
2023/05/13 01:30:01;;;;;;;7.68;5.18;;;11.40;99.90;;;;;;4251420;27;20172;-84
2023/05/13 01:32:02;;;;;;;10.25;5.10;;;11.40;99.90;;;;;;4251963;27;20536;-84
2023/05/13 01:34:04;;;;;;;8.57;6.07;;;11.40;99.90;;;;;;4251541;27;20046;-85
2023/05/13 01:36:06;;;;;;;8.20;4.90;;;11.40;99.90;;;;;;4251573;27;20068;-84
2023/05/13 01:38:08;;;;;;;10.82;5.55;;;11.30;99.90;;;;;;4251955;27;20145;-84
2023/05/13 01:40:10;;;;;;;9.10;5.68;;;11.30;99.90;;;;;;4250988;27;20043;-84
2023/05/13 01:42:10;;;;;;;8.55;5.20;;;11.20;99.90;;;;;;4251643;27;20043;-83
2023/05/13 01:44:12;;;;;;;8.00;5.15;;;11.20;99.90;;;;;;4236809;27;20040;-84
2023/05/13 01:46:13;;;;;;;8.32;5.38;;;11.20;99.90;;;;;;4216473;28;20054;-84
2023/05/13 01:48:13;;;;;;;9.20;5.65;;;11.20;99.90;;;;;;4215882;28;20126;-84
2023/05/13 01:50:15;;;;;;;9.98;5.57;;;11.20;99.90;;;;;;4216223;28;20051;-84
2023/05/13 01:52:16;;;;;;;9.38;6.10;;;11.10;99.90;;;;;;4234789;28;20036;-84
2023/05/13 01:54:17;;;;;;;9.35;5.75;;;11.10;99.90;;;;;;4232474;28;20122;-84
2023/05/13 01:56:18;;;;;;;9.52;6.60;;;11.10;99.90;;;;;;4234580;28;20046;-84
2023/05/13 01:58:20;;;;;;;10.10;6.20;;;11.10;99.90;;;;;;4233943;28;20036;-84
2023/05/13 02:00:20;;;;;;;10.07;6.05;;;11.00;99.90;;;;;;4221596;28;20043;-84
2023/05/13 02:02:21;;;;;;;9.02;5.60;;;11.00;99.90;;;;;;4250121;27;20039;-84
2023/05/13 02:04:22;;;;;;;9.23;6.13;;;11.00;99.90;;;;;;4250808;27;20380;-84
2023/05/13 02:06:23;;;;;;;11.68;7.15;;;11.00;99.90;;;;;;4250420;27;20155;-84
2023/05/13 02:08:26;;;;;;;10.68;6.57;;;11.00;99.90;;;;;;4250469;27;20070;-84
2023/05/13 02:10:28;;;;;;;8.13;6.00;;;11.00;99.90;;;;;;4251047;27;20062;-84
2023/05/13 02:12:29;;;;;;;9.95;5.80;;;11.00;99.90;;;;;;4250722;27;20039;-84
2023/05/13 02:14:30;;;;;;;8.30;5.95;;;10.90;99.90;;;;;;4252350;27;20057;-84
2023/05/13 02:16:31;;;;;;;9.88;6.10;;;10.90;99.90;;;;;;4251264;27;20047;-84
2023/05/13 02:18:32;;;;;;;10.95;6.07;;;11.00;99.90;;;;;;4251695;27;20043;-85
2023/05/13 02:20:33;;;;;;;7.75;5.97;;;10.90;99.90;;;;;;4235045;27;20086;-84
2023/05/13 02:22:34;;;;;;;14.75;6.57;;;10.80;99.90;;;;;;4231961;28;20051;-84
2023/05/13 02:24:38;;;;;;;13.63;7.10;;;10.90;99.90;;;;;;4233090;28;20094;-84
2023/05/13 02:26:40;;;;;;;8.82;6.60;;;10.90;99.90;;;;;;4231414;28;20126;-84
2023/05/13 02:28:41;;;;;;;6.70;5.50;;;10.90;99.90;;;;;;4233873;28;20452;-84
2023/05/13 02:30:41;;;;;;;10.88;5.93;;;10.80;99.90;;;;;;4231807;28;20096;-84
2023/05/13 02:32:42;;;;;;;15.10;7.57;;;10.80;99.90;;;;;;4232469;28;20051;-84
2023/05/13 02:34:43;;;;;;;9.45;6.10;;;11.70;99.90;;;;;;4233422;28;20043;-85
2023/05/13 02:36:44;;;;;;;10.82;6.03;;;10.80;99.90;;;;;;4232870;28;20507;-84
2023/05/13 02:38:44;;;;;;;11.88;5.95;;;10.80;99.90;;;;;;4233111;28;20505;-84
2023/05/13 02:40:47;;;;;;;17.85;6.60;;;10.30;99.90;;;;;;4221315;28;20130;-84
2023/05/13 02:42:47;;;;;;;13.63;6.95;;;10.80;99.90;;;;;;4216098;28;20113;-84
2023/05/13 02:44:49;;;;;;;10.50;7.93;;;10.70;99.90;;;;;;4214477;28;20051;-85
2023/05/13 02:46:51;;;;;;;11.57;6.20;;;10.70;99.90;;;;;;4217351;28;20040;-85
2023/05/13 02:48:51;;;;;;;8.40;6.40;;;10.80;99.90;;;;;;4215932;28;20040;-85
2023/05/13 02:50:52;;;;;;;9.18;5.65;;;10.70;99.90;;;;;;4214761;28;20055;-85
2023/05/13 02:52:53;;;;;;;9.85;5.78;;;10.70;99.90;;;;;;4215205;28;20036;-84
2023/05/13 02:54:54;;;;;;;8.07;5.78;;;10.70;99.90;;;;;;4231557;28;20113;-84
2023/05/13 02:56:55;;;;;;;9.80;6.30;;;10.70;99.90;;;;;;4216314;28;20044;-85
2023/05/13 02:58:56;;;;;;;13.95;6.90;;;10.70;99.90;;;;;;4228195;28;20055;-85
2023/05/13 03:00:57;;;;;;;12.50;8.10;;;10.70;99.90;;;;;;4227213;28;20031;-85
2023/05/13 03:02:57;;;;;;;12.02;6.95;;;10.70;99.90;;;;;;4215774;28;20036;-84
2023/05/13 03:04:58;;;;;;;10.55;6.63;;;10.60;99.90;;;;;;4216148;28;20048;-85
2023/05/13 03:06:59;;;;;;;10.65;6.32;;;10.60;99.90;;;;;;4216396;28;20050;-85
2023/05/13 03:08:59;;;;;;;13.30;6.90;;;10.60;99.90;;;;;;4215978;28;20109;-84
2023/05/13 03:11:00;;;;;;;12.55;6.75;;;10.60;99.90;;;;;;4216257;28;20496;-85
2023/05/13 03:13:02;;;;;;;13.30;7.40;;;10.50;99.90;;;;;;4218038;28;20036;-85
2023/05/13 03:15:04;;;;;;;18.73;7.88;;;10.60;99.90;;;;;;4231903;28;20036;-84
2023/05/13 03:17:05;;;;;;;8.55;6.43;;;10.60;99.90;;;;;;4231104;28;20052;-84
2023/05/13 03:19:07;;;;;;;13.95;6.50;;;10.60;99.90;;;;;;4232799;28;20507;-84
2023/05/13 03:21:07;;;;;;;9.52;6.68;;;10.50;99.90;;;;;;4232219;28;20055;-84
2023/05/13 03:23:08;;;;;;;11.27;7.20;;;10.50;99.90;;;;;;4230273;28;20062;-84
2023/05/13 03:25:10;;;;;;;9.93;7.32;;;10.50;99.90;;;;;;4232560;28;20092;-84
2023/05/13 03:27:11;;;;;;;10.85;7.05;;;10.50;99.90;;;;;;4230261;28;20044;-84
2023/05/13 03:29:11;;;;;;;15.60;7.22;;;10.40;99.90;;;;;;4232838;28;20050;-84
2023/05/13 03:31:12;;;;;;;13.10;8.32;;;10.40;99.90;;;;;;4231927;28;20499;-84
2023/05/13 03:33:13;;;;;;;10.73;7.32;;;10.40;99.90;;;;;;4240614;27;20067;-84
2023/05/13 03:35:15;;;;;;;14.60;7.63;;;10.40;99.90;;;;;;4233244;28;20145;-83
2023/05/13 03:37:15;;;;;;;11.35;7.10;;;10.40;99.90;;;;;;4231686;28;20036;-83
2023/05/13 03:39:16;;;;;;;12.77;6.88;;;10.40;99.90;;;;;;4233003;28;20058;-84
2023/05/13 03:41:18;;;;;;;22.98;7.10;;;10.40;99.90;;;;;;4232333;28;20049;-85
2023/05/13 03:43:20;;;;;;;12.88;7.95;;;10.40;99.90;;;;;;4232703;28;20091;-85
2023/05/13 03:45:20;;;;;;;9.77;7.00;;;10.40;99.90;;;;;;4230474;28;20048;-85
2023/05/13 03:47:22;;;;;;;14.05;7.90;;;10.30;99.90;;;;;;4232313;28;20501;-85
2023/05/13 03:49:24;;;;;;;11.73;7.13;;;10.30;99.90;;;;;;4231605;28;20040;-85
2023/05/13 03:51:25;;;;;;;16.02;7.97;;;10.30;99.90;;;;;;4231740;28;20035;-85
2023/05/13 03:53:25;;;;;;;12.65;6.70;;;10.30;99.90;;;;;;4231298;28;20599;-85
2023/05/13 03:55:26;;;;;;;10.55;6.90;;;10.30;99.90;;;;;;4231859;28;20036;-84
2023/05/13 03:57:28;;;;;;;12.32;7.35;;;10.30;99.90;;;;;;4232515;28;20047;-85
2023/05/13 03:59:30;;;;;;;15.77;8.02;;;10.30;99.90;;;;;;4232044;28;20089;-85
2023/05/13 04:01:31;;;;;;;10.05;6.35;;;10.30;99.90;;;;;;4232001;28;20488;-85
2023/05/13 04:03:33;;;;;;;11.27;7.03;;;10.30;99.90;;;;;;4230820;28;20166;-85
2023/05/13 04:05:33;;;;;;;17.95;7.18;;;10.30;99.90;;;;;;4230978;28;20058;-85
2023/05/13 04:07:34;;;;;;;12.23;7.22;;;10.20;99.90;;;;;;4201936;28;20048;-85
2023/05/13 04:09:36;;;;;;;10.82;6.90;;;10.20;99.90;;;;;;4213881;28;20079;-85
2023/05/13 04:11:37;;;;;;;11.63;6.30;;;10.20;99.90;;;;;;4213765;28;20048;-85
2023/05/13 04:13:40;;;;;;;14.05;6.97;;;10.20;99.90;;;;;;4213433;28;20040;-85
2023/05/13 04:15:41;;;;;;;12.88;6.68;;;10.30;99.90;;;;;;4213874;28;20052;-84
2023/05/13 04:17:41;;;;;;;14.48;6.47;;;10.30;99.90;;;;;;4213292;28;20408;-84
2023/05/13 04:19:42;;;;;;;11.48;6.32;;;10.30;99.90;;;;;;4216044;28;20055;-84
2023/05/13 04:21:43;;;;;;;10.02;6.80;;;10.20;99.90;;;;;;4214518;28;20044;-84
2023/05/13 04:23:43;;;;;;;8.73;5.85;;;10.30;99.90;;;;;;4229200;28;20047;-84
2023/05/13 04:25:52;;;;;;;10.98;6.57;;;10.30;99.90;;;;;;4232720;28;20054;-84
2023/05/13 04:27:53;;;;;;;17.20;7.72;;;10.30;99.90;;;;;;4232206;28;20039;-84
2023/05/13 04:29:54;;;;;;;12.35;6.28;;;10.30;99.90;;;;;;4214765;28;20047;-84
2023/05/13 04:31:55;;;;;;;10.80;6.28;;;10.40;99.90;;;;;;4214472;28;20051;-84
2023/05/13 04:33:56;;;;;;;10.32;6.18;;;10.40;99.90;;;;;;4232227;28;20054;-83
2023/05/13 04:35:57;;;;;;;13.98;7.15;;;10.40;99.90;;;;;;4232621;28;20038;-84
2023/05/13 04:37:58;;;;;;;9.20;6.47;;;10.40;99.90;;;;;;4213635;28;20443;-84
2023/05/13 04:39:59;;;;;;;10.38;5.82;;;10.50;99.90;;;;;;4231697;28;20044;-84
2023/05/13 04:42:00;;;;;;;10.48;6.25;;;10.50;99.90;;;;;;4234889;28;20475;-84
2023/05/13 04:44:01;;;;;;;17.42;6.93;;;10.50;99.90;;;;;;4214275;28;20420;-84
2023/05/13 04:46:02;;;;;;;12.05;6.55;;;10.50;99.90;;;;;;4249315;28;20043;-85
2023/05/13 04:48:03;;;;;;;10.45;6.28;;;10.50;99.90;;;;;;4249639;28;20091;-84
2023/05/13 04:50:05;;;;;;;10.48;6.28;;;10.60;99.90;;;;;;4249418;28;20042;-84
2023/05/13 04:52:06;;;;;;;12.30;6.00;;;10.60;99.90;;;;;;4229746;28;20123;-84
2023/05/13 04:54:07;;;;;;;10.63;6.70;;;10.60;99.90;;;;;;4213658;28;20404;-84
2023/05/13 04:56:07;;;;;;;9.75;6.30;;;10.70;99.90;;;;;;4248238;28;20043;-84
2023/05/13 04:58:08;;;;;;;10.85;6.10;;;10.70;99.90;;;;;;4249074;28;20043;-84
2023/05/13 05:00:10;;;;;;;10.02;6.47;;;10.70;99.90;;;;;;4226816;28;20090;-84
2023/05/13 05:02:11;;;;;;;11.10;6.82;;;10.80;99.90;;;;;;4248972;28;20479;-84
2023/05/13 05:04:12;;;;;;;18.20;7.35;;;10.80;99.90;;;;;;4249837;28;20521;-84
2023/05/13 05:06:13;;;;;;;10.00;6.80;;;10.90;99.90;;;;;;4248640;28;20047;-85
2023/05/13 05:08:15;;;;;;;11.50;6.97;;;10.90;99.90;;;;;;4249503;28;20043;-84
2023/05/13 05:10:16;;;;;;;13.38;6.80;;;11.00;99.90;;;;;;4248423;28;20046;-84
2023/05/13 05:12:17;;;;;;;16.98;7.65;;;11.10;99.90;;;;;;4249636;28;20043;-83
2023/05/13 05:14:20;;;;;;;16.05;7.15;;;11.10;99.90;;;;;;4248508;28;20039;-84
2023/05/13 05:16:22;;;;;;;11.73;7.45;;;11.20;99.90;;;;;;4225971;28;20056;-84
2023/05/13 05:18:23;;;;;;;15.90;7.40;;;11.20;99.90;;;;;;4214175;28;20102;-84
2023/05/13 05:20:23;;;;;;;15.55;7.40;;;11.30;99.90;;;;;;4213274;28;20496;-84
2023/05/13 05:22:25;;;;;;;8.20;6.53;;;11.40;99.90;;;;;;4232025;28;20051;-84
2023/05/13 05:24:26;;;;;;;10.63;7.35;;;11.50;99.90;;;;;;4231437;28;20051;-84
2023/05/13 05:26:27;;;;;;;9.90;6.78;;;11.60;99.90;;;;;;4232213;28;20039;-85
2023/05/13 05:28:27;;;;;;;12.95;7.38;;;11.70;99.90;;;;;;4231608;28;20043;-84
2023/05/13 05:30:29;;;;;;;13.82;6.93;;;11.90;99.90;;;;;;4235182;28;20502;-84
2023/05/13 05:32:29;;;;;;;13.82;7.55;;;11.80;99.90;;;;;;4235337;27;20042;-84
2023/05/13 05:34:31;;;;;;;13.98;6.97;;;11.90;99.90;;;;;;4233944;28;20507;-84
2023/05/13 05:36:32;;;;;;;9.80;6.88;;;12.00;99.90;;;;;;4240441;27;20047;-84
2023/05/13 05:38:34;;;;;;;14.30;7.50;;;12.10;99.90;;;;;;4252053;27;20391;-84
2023/05/13 05:40:40;;;;;;;16.23;7.57;;;12.20;99.90;;;;;;4234066;28;20054;-84
2023/05/13 05:42:40;;;;;;;17.20;6.80;;;12.30;99.90;;;;;;4250963;27;20058;-85
2023/05/13 05:44:41;;;;;;;14.18;6.78;;;12.40;99.90;;;;;;4251925;27;20158;-85
2023/05/13 05:46:42;;;;;;;13.57;7.43;;;12.50;99.90;;;;;;4252015;27;20051;-85
2023/05/13 05:48:42;;;;;;;13.85;7.88;;;12.60;99.90;;;;;;4233906;28;20055;-85
2023/05/13 05:50:43;;;;;;;13.43;6.60;;;12.70;99.90;;;;;;4251859;27;20047;-85
2023/05/13 05:52:44;;;;;;;12.05;6.72;;;12.80;99.90;;;;;;4250688;27;20122;-85
2023/05/13 05:54:44;;;;;;;13.93;7.00;;;12.80;99.90;;;;;;4252521;27;20106;-85
2023/05/13 05:56:46;;;;;;;12.07;7.05;;;12.90;99.90;;;;;;4252016;27;20043;-84
2023/05/13 05:58:47;;;;;;;14.52;7.28;;;13.00;99.90;;;;;;4253152;27;20071;-84
2023/05/13 06:00:48;;;;;;;11.25;7.22;;;13.10;99.90;;;;;;4247469;27;20043;-84
2023/05/13 06:02:49;;;;;;;11.13;6.75;;;13.20;99.90;;;;;;4222291;28;20079;-84
2023/05/13 06:04:51;;;;;;;11.05;6.45;;;13.30;99.90;;;;;;4234423;28;20574;-84
2023/05/13 06:06:52;;;;;;;13.38;6.78;;;13.40;99.90;;;;;;4245414;27;20083;-84
2023/05/13 06:08:52;;;;;;;16.70;7.50;;;13.50;99.90;;;;;;4235751;27;20048;-84
2023/05/13 06:10:53;;;;;;;12.65;6.65;;;13.50;99.90;;;;;;4216466;28;20412;-83
2023/05/13 06:12:54;;;;;;;9.18;6.65;;;13.60;99.90;;;;;;4235303;28;20047;-82
2023/05/13 06:14:55;;;;;;;11.00;7.60;;;13.70;99.90;;;;;;4234778;28;20130;-83
2023/05/13 06:16:56;;;;;;;16.25;7.38;;;13.80;99.90;;;;;;4216400;28;20058;-83
2023/05/13 06:18:57;;;;;;;8.65;6.35;;;13.80;99.90;;;;;;4245193;27;20049;-84
2023/05/13 06:20:58;;;;;;;12.77;7.88;;;13.90;99.90;;;;;;4238830;27;20075;-82
2023/05/13 06:22:59;;;;;;;12.48;6.72;;;14.00;99.90;;;;;;4246515;27;20051;-84
2023/05/13 06:25:00;;;;;;;11.07;7.22;;;14.10;99.90;;;;;;4251232;27;20043;-84
2023/05/13 06:27:02;;;;;;;11.52;7.00;;;14.20;99.90;;;;;;4243087;27;20051;-83
2023/05/13 06:29:02;;;;;;;12.05;6.25;;;14.30;99.90;;;;;;4234050;28;20048;-84
2023/05/13 06:31:03;;;;;;;12.80;5.93;;;14.40;99.90;;;;;;4247455;27;20483;-83
2023/05/13 06:33:04;;;;;;;8.75;6.10;;;14.40;99.90;;;;;;4218360;28;20490;-83
2023/05/13 06:35:06;;;;;;;12.90;6.90;;;14.50;99.90;;;;;;4242077;27;20046;-83
2023/05/13 06:37:08;;;;;;;10.48;6.68;;;14.60;99.90;;;;;;4232997;28;20457;-84
2023/05/13 06:39:10;;;;;;;12.73;6.13;;;14.70;99.90;;;;;;4241618;27;20142;-83
2023/05/13 06:41:11;;;;;;;13.55;6.70;;;14.80;99.90;;;;;;4243032;27;20118;-84
2023/05/13 06:43:13;;;;;;;9.27;5.97;;;14.80;99.90;;;;;;4225647;28;20388;-83
2023/05/13 06:45:14;;;;;;;12.20;5.72;;;14.90;99.90;;;;;;4249660;27;20039;-83
2023/05/13 06:47:15;;;;;;;10.43;5.88;;;15.00;99.90;;;;;;4230363;28;20108;-83
2023/05/13 06:49:15;;;;;;;12.38;6.22;;;15.10;99.90;;;;;;4250700;27;20051;-83
2023/05/13 06:51:16;;;;;;;13.60;5.90;;;15.10;99.90;;;;;;4232859;28;20120;-84
2023/05/13 06:53:17;;;;;;;11.15;6.50;;;15.20;99.90;;;;;;4251104;27;20411;-84
2023/05/13 06:55:18;;;;;;;12.07;6.82;;;15.30;99.90;;;;;;4222878;28;20048;-84
2023/05/13 06:57:20;;;;;;;12.10;6.47;;;15.40;99.90;;;;;;4243688;27;20054;-84
2023/05/13 06:59:21;;;;;;;13.75;5.68;;;15.50;99.90;;;;;;4223480;28;20127;-84
2023/05/13 07:01:24;;;;;;;10.80;5.85;;;15.50;99.90;;;;;;4209731;28;20131;-84
2023/05/13 07:03:25;;;;;;;10.75;6.07;;;15.60;99.90;;;;;;4240914;27;20040;-84
2023/05/13 07:05:26;;;;;;;10.48;6.07;;;15.70;99.90;;;;;;4226699;28;20559;-83
2023/05/13 07:07:26;;;;;;;18.50;6.93;;;15.80;99.90;;;;;;4240153;27;20101;-84
2023/05/13 07:09:27;;;;;;;10.32;5.57;;;15.90;99.90;;;;;;4215636;28;20044;-84
2023/05/13 07:11:28;;;;;;;9.43;6.03;;;16.00;99.90;;;;;;4234387;28;20094;-83
2023/05/13 07:13:32;;;;;;;9.65;5.32;;;16.10;99.90;;;;;;4245978;27;20548;-83
2023/05/13 07:15:32;;;;;;;11.45;5.60;;;16.20;99.90;;;;;;4239345;27;20043;-82
2023/05/13 07:17:33;;;;;;;8.82;5.38;;;16.30;99.90;;;;;;4227711;28;20047;-83
2023/05/13 07:19:35;;;;;;;7.25;5.50;;;16.40;99.90;;;;;;4231879;28;20048;-83
2023/05/13 07:21:37;;;;;;;10.27;6.30;;;16.40;99.90;;;;;;4244252;27;20043;-83
2023/05/13 07:23:37;;;;;;;11.52;5.53;;;16.60;99.90;;;;;;4247297;27;20051;-83
2023/05/13 07:25:39;;;;;;;14.43;5.75;;;16.60;99.90;;;;;;4231202;28;20389;-83
2023/05/13 07:27:40;;;;;;;7.88;4.78;;;16.60;99.90;;;;;;4244769;27;20035;-80
2023/05/13 07:29:40;;;;;;;9.02;5.78;;;16.70;99.90;;;;;;4248767;27;20859;-81
2023/05/13 07:31:41;;;;;;;11.90;5.28;;;16.80;99.90;;;;;;4249298;27;20538;-81
2023/05/13 07:33:43;;;;;;;12.57;5.50;;;16.90;99.90;;;;;;4247751;27;20045;-81
2023/05/13 07:35:44;;;;;;;12.55;5.07;;;17.00;99.90;;;;;;4246585;27;20040;-81
2023/05/13 07:37:47;;;;;;;9.00;5.22;;;17.20;99.90;;;;;;4214748;28;20055;-81
2023/05/13 07:39:48;;;;;;;10.13;5.88;;;17.30;99.90;;;;;;4231806;28;20058;-81
2023/05/13 07:41:49;;;;;;;9.10;5.22;;;17.40;99.90;;;;;;4232999;28;20023;-81
2023/05/13 07:43:50;;;;;;;9.60;4.82;;;17.50;99.90;;;;;;4233053;28;20119;-81
2023/05/13 07:45:51;;;;;;;9.50;4.47;;;17.60;99.90;;;;;;4232715;28;20051;-78
2023/05/13 07:47:51;;;;;;;7.40;4.50;;;17.80;99.90;;;;;;4231863;28;20471;-80
2023/05/13 07:49:54;;;;;;;8.75;4.53;;;17.90;99.90;;;;;;4233443;27;20446;-80
2023/05/13 07:51:55;;;;;;;8.60;4.57;;;18.00;99.90;;;;;;4242904;27;20035;-80
2023/05/13 07:53:56;;;;;;;9.50;4.35;;;18.10;99.90;;;;;;4244999;27;20471;-80
2023/05/13 07:55:57;;;;;;;9.15;5.25;;;18.20;99.90;;;;;;4250646;27;20063;-80
2023/05/13 07:57:57;;;;;;;7.15;4.50;;;18.30;99.90;;;;;;4249272;27;20470;-80
2023/05/13 07:59:58;;;;;;;9.60;5.38;;;18.40;99.90;;;;;;4250483;27;20070;-80
2023/05/13 08:01:59;;;;;;;9.10;5.30;;;18.50;99.90;;;;;;4248987;27;20118;-80
2023/05/13 08:04:00;;;;;;;5.55;4.63;;;18.60;99.90;;;;;;4250568;27;20085;-80
2023/05/13 08:06:00;;;;;;;10.77;4.68;;;18.80;99.90;;;;;;4231521;28;20044;-80
2023/05/13 08:08:02;;;;;;;9.23;4.50;;;18.90;99.90;;;;;;4249109;27;20600;-80
2023/05/13 08:10:03;;;;;;;8.82;4.13;;;19.00;99.90;;;;;;4248971;27;20035;-80
2023/05/13 08:12:05;;;;;;;9.93;4.18;;;19.20;99.90;;;;;;4248774;27;20535;-80
2023/05/13 08:14:06;;;;;;;13.05;4.75;;;19.40;99.90;;;;;;4248862;27;20022;-80
2023/05/13 08:16:07;;;;;;;7.68;4.05;;;19.50;99.90;;;;;;4248452;27;20518;-81
2023/05/13 08:18:08;;;;;;;8.95;4.25;;;19.70;99.90;;;;;;4248873;27;20479;-80
2023/05/13 08:20:10;;;;;;;8.82;4.65;;;19.80;99.90;;;;;;4248471;27;20039;-79
2023/05/13 08:22:11;;;;;;;7.97;4.53;;;20.00;99.90;;;;;;4248517;27;20072;-79
2023/05/13 08:24:13;;;;;;;11.10;4.90;;;20.10;99.90;;;;;;4230796;28;20485;-80
2023/05/13 08:26:13;;;;;;;7.28;4.20;;;20.30;99.90;;;;;;4230107;28;20755;-79
2023/05/13 08:28:14;;;;;;;7.13;3.83;;;20.50;99.90;;;;;;4249883;27;20043;-79
2023/05/13 08:30:15;;;;;;;14.32;5.15;;;20.60;99.90;;;;;;4247371;27;20087;-79
2023/05/13 08:32:17;;;;;;;14.50;4.78;;;20.60;99.90;;;;;;4246326;28;20047;-80
2023/05/13 08:34:18;;;;;;;7.13;3.78;;;20.80;99.90;;;;;;4248943;28;20042;-80
2023/05/13 08:36:24;;;;;;;6.07;3.80;;;21.00;99.90;;;;;;4249131;28;20035;-80
2023/05/13 08:38:25;;;;;;;6.22;3.58;;;21.20;99.90;;;;;;4248994;28;20092;-81
2023/05/13 08:40:26;;;;;;;8.32;3.28;;;21.40;99.90;;;;;;4248788;28;20436;-80
2023/05/13 08:42:32;;;;;;;8.30;3.80;;;21.60;99.90;;;;;;4250000;28;20050;-80
2023/05/13 08:44:38;;;;;;;6.32;3.70;;;21.80;99.90;;;;;;4244423;28;20035;-81
2023/05/13 08:46:42;;;;;;;6.18;3.47;;;21.80;99.90;;;;;;4249741;28;20096;-80
2023/05/13 08:48:43;;;;;;;10.50;3.78;;;21.90;99.90;;;;;;4249551;28;20066;-80
2023/05/13 08:50:44;;;;;;;7.22;3.28;;;22.00;99.90;;;;;;4248687;28;20069;-80
2023/05/13 08:52:45;;;;;;;7.60;3.53;;;22.20;99.90;;;;;;4248766;28;20045;-81
2023/05/13 08:54:47;;;;;;;7.53;4.00;;;22.20;99.90;;;;;;4247678;28;20047;-81
2023/05/13 08:56:50;;;;;;;6.28;3.45;;;22.40;99.90;;;;;;4248271;28;20092;-80
2023/05/13 08:58:51;;;;;;;7.95;3.67;;;22.50;99.90;;;;;;4248408;28;20505;-81
2023/05/13 09:00:55;;;;;;;7.70;3.50;;;22.80;99.90;;;;;;4248705;28;20074;-81
2023/05/13 09:02:55;;;;;;;11.82;3.17;;;23.00;99.90;;;;;;4248156;27;20074;-80
2023/05/13 09:05:03;;;;;;;6.57;3.50;;;23.00;99.90;;;;;;4252795;27;20039;-81
2023/05/13 09:07:04;;;;;;;11.85;3.80;;;23.10;99.90;;;;;;4254383;27;20071;-81
2023/05/13 09:09:05;;;;;;;6.88;3.05;;;23.20;99.90;;;;;;4253157;27;20119;-82
2023/05/13 09:11:06;;;;;;;7.88;3.42;;;23.40;99.90;;;;;;4254516;27;20080;-81
2023/05/13 09:13:11;;;;;;;9.38;2.83;;;23.50;99.90;;;;;;4255145;27;20053;-81
2023/05/13 09:15:17;;;;;;;5.85;3.38;;;23.50;99.90;;;;;;4255128;27;20043;-82
2023/05/13 09:17:19;;;;;;;4.68;3.25;;;23.70;99.90;;;;;;4254136;27;20054;-81
2023/05/13 09:19:22;;;;;;;13.98;4.15;;;23.80;99.90;;;;;;4250965;27;20035;-81
2023/05/13 09:21:27;;;;;;;6.55;3.17;;;24.00;99.90;;;;;;4238324;28;20051;-81
2023/05/13 09:23:28;;;;;;;10.93;3.63;;;24.10;99.90;;;;;;4237829;28;20051;-83
2023/05/13 09:25:30;;;;;;;9.85;3.38;;;24.20;99.90;;;;;;4237531;28;20084;-81
2023/05/13 09:27:39;;;;;;;9.45;3.70;;;24.10;99.90;;;;;;4237415;28;20421;-81
2023/05/13 09:29:41;;;;;;;8.50;2.95;;;24.10;99.90;;;;;;4238145;28;20057;-81
2023/05/13 09:31:47;;;;;;;8.18;3.13;;;24.20;99.90;;;;;;4237489;28;20112;-81
2023/05/13 09:33:54;;;;;;;8.30;3.30;;;24.40;99.90;;;;;;4236742;28;20036;-81
2023/05/13 09:35:54;;;;;;;8.98;3.72;;;24.60;99.90;;;;;;4217915;28;20044;-81
2023/05/13 09:37:55;;;;;;;9.55;4.20;;;24.70;99.90;;;;;;4241889;27;20044;-81
2023/05/13 09:39:56;;;;;;;10.27;2.92;;;24.70;99.90;;;;;;4235905;28;20123;-81
2023/05/13 09:41:57;;;;;;;10.13;3.88;;;24.70;99.90;;;;;;4237210;28;20044;-81
2023/05/13 09:44:00;;;;;;;5.68;3.55;;;24.80;99.90;;;;;;4235487;28;20035;-81
2023/05/13 09:46:03;;;;;;;7.63;3.55;;;25.00;99.90;;;;;;4237119;28;20086;-81
2023/05/13 09:48:04;;;;;;;9.82;4.10;;;25.20;99.90;;;;;;4237173;28;20487;-82
2023/05/13 09:50:06;;;;;;;5.45;3.40;;;25.30;99.90;;;;;;4235593;28;20055;-80
2023/05/13 09:52:11;;;;;;;7.72;3.20;;;25.40;99.90;;;;;;4236384;28;20415;-81
2023/05/13 09:54:11;;;;;;;6.78;3.40;;;25.60;99.90;;;;;;4237080;27;20451;-80
2023/05/13 09:56:12;;;;;;;5.22;3.42;;;25.70;99.90;;;;;;4252168;27;20043;-80
2023/05/13 09:58:13;;;;;;;5.18;3.00;;;25.80;99.90;;;;;;4245124;27;20475;-81
2023/05/13 10:00:15;;;;;;;6.38;2.95;;;;;;;;;;4251979;27;20069;-82
2023/05/13 10:02:17;;;;;;;8.80;3.13;;;;;;;;;;4252118;27;20394;-81
2023/05/13 10:04:19;;;;;;;5.90;3.03;;;;;;;;;;4238462;27;20479;-82
2023/05/13 10:06:22;;;;;;;5.63;3.42;;;;;;;;;;4215551;28;20044;-81
2023/05/13 10:08:24;;;;;;;4.35;2.72;;;;;;;;;;4233291;28;20039;-81
2023/05/13 10:10:29;;;;;;;7.78;3.20;;;25.90;99.90;;;;;;4239064;27;20100;-82
2023/05/13 10:12:32;;;;;;;8.23;3.05;;;26.50;98.10;;;;;;4244960;27;20039;-81
2023/05/13 10:14:37;;;;;;;5.55;2.72;;;26.50;97.80;;;;;;4233624;28;20047;-82
2023/05/13 10:16:39;;;;;;;8.75;3.45;;;;;;;;;;4247590;27;20078;-82
2023/05/13 10:18:40;;;;;;;5.07;3.03;;;26.60;97.20;;;;;;4250756;27;20057;-81
2023/05/13 10:20:42;;;;;;;8.02;3.10;;;26.80;97.30;;;;;;4232467;28;20044;-82
2023/05/13 10:22:43;;;;;;;7.30;3.10;;;26.80;97.20;;;;;;4250639;27;20046;-81
2023/05/13 10:24:44;;;;;;;8.32;2.90;;;26.90;97.30;;;;;;4232839;28;20090;-81
2023/05/13 10:26:45;;;;;;;9.55;3.72;;;27.00;96.60;;;;;;4250607;27;20074;-81
2023/05/13 10:28:47;;;;;;;5.88;2.90;;;;;;;;;;4250685;27;20047;-81
2023/05/13 10:30:52;;;;;;;8.18;3.70;;;;;;;;;;4250093;27;20050;-81
2023/05/13 10:32:53;;;;;;;5.78;2.88;;;;;;;;;;4250068;27;20066;-81